sensor_id;sensor_type;location;lat;lon;timestamp;P1;durP1;ratioP1;P2;durP2;ratioP2
20287;SDS011;10303;51.960;8.372;2023-07-02T00:01:46;2.10;;;2.00;;
20287;SDS011;10303;51.960;8.372;2023-07-02T00:04:13;2.97;;;2.77;;
20287;SDS011;10303;51.960;8.372;2023-07-02T00:06:47;3.00;;;2.80;;
20287;SDS011;10303;51.960;8.372;2023-07-02T00:09:14;2.53;;;2.10;;
20287;SDS011;10303;51.960;8.372;2023-07-02T00:11:42;2.17;;;2.03;;
20287;SDS011;10303;51.960;8.372;2023-07-02T00:14:11;2.17;;;2.07;;
20287;SDS011;10303;51.960;8.372;2023-07-02T00:16:39;2.30;;;2.20;;
20287;SDS011;10303;51.960;8.372;2023-07-02T00:19:09;2.07;;;1.97;;
20287;SDS011;10303;51.960;8.372;2023-07-02T00:21:35;4.00;;;2.40;;
20287;SDS011;10303;51.960;8.372;2023-07-02T00:24:02;2.57;;;2.37;;
20287;SDS011;10303;51.960;8.372;2023-07-02T00:26:29;1.80;;;1.70;;
20287;SDS011;10303;51.960;8.372;2023-07-02T00:28:55;2.60;;;2.40;;
20287;SDS011;10303;51.960;8.372;2023-07-02T00:31:22;2.77;;;2.57;;
20287;SDS011;10303;51.960;8.372;2023-07-02T00:33:49;2.07;;;1.80;;
20287;SDS011;10303;51.960;8.372;2023-07-02T00:36:16;5.23;;;2.10;;
20287;SDS011;10303;51.960;8.372;2023-07-02T00:38:42;2.03;;;1.93;;
20287;SDS011;10303;51.960;8.372;2023-07-02T00:41:12;1.67;;;1.57;;
20287;SDS011;10303;51.960;8.372;2023-07-02T00:43:39;1.60;;;1.33;;
20287;SDS011;10303;51.960;8.372;2023-07-02T00:46:15;1.77;;;1.67;;
20287;SDS011;10303;51.960;8.372;2023-07-02T00:48:54;4.33;;;2.70;;
20287;SDS011;10303;51.960;8.372;2023-07-02T00:53:50;2.97;;;2.77;;
20287;SDS011;10303;51.960;8.372;2023-07-02T00:56:19;2.27;;;1.97;;
20287;SDS011;10303;51.960;8.372;2023-07-02T00:58:48;3.43;;;1.83;;
20287;SDS011;10303;51.960;8.372;2023-07-02T01:01:17;1.90;;;1.80;;
20287;SDS011;10303;51.960;8.372;2023-07-02T01:03:50;2.43;;;2.23;;
20287;SDS011;10303;51.960;8.372;2023-07-02T01:06:28;2.13;;;2.00;;
20287;SDS011;10303;51.960;8.372;2023-07-02T01:09:01;2.07;;;1.97;;
20287;SDS011;10303;51.960;8.372;2023-07-02T01:11:40;2.07;;;1.87;;
20287;SDS011;10303;51.960;8.372;2023-07-02T01:14:22;2.50;;;2.30;;
20287;SDS011;10303;51.960;8.372;2023-07-02T01:17:04;2.03;;;1.93;;
20287;SDS011;10303;51.960;8.372;2023-07-02T01:19:38;3.33;;;2.40;;
20287;SDS011;10303;51.960;8.372;2023-07-02T01:22:24;2.27;;;2.10;;
20287;SDS011;10303;51.960;8.372;2023-07-02T01:24:53;2.50;;;2.00;;
20287;SDS011;10303;51.960;8.372;2023-07-02T01:27:20;1.97;;;1.87;;
20287;SDS011;10303;51.960;8.372;2023-07-02T01:29:50;2.03;;;1.83;;
20287;SDS011;10303;51.960;8.372;2023-07-02T01:32:18;2.87;;;2.17;;
20287;SDS011;10303;51.960;8.372;2023-07-02T01:34:44;4.33;;;2.40;;
20287;SDS011;10303;51.960;8.372;2023-07-02T01:37:17;2.57;;;2.37;;
20287;SDS011;10303;51.960;8.372;2023-07-02T01:39:45;2.20;;;2.10;;
20287;SDS011;10303;51.960;8.372;2023-07-02T01:42:12;2.53;;;2.30;;
20287;SDS011;10303;51.960;8.372;2023-07-02T01:44:44;2.50;;;2.27;;
20287;SDS011;10303;51.960;8.372;2023-07-02T01:47:13;2.57;;;2.37;;
20287;SDS011;10303;51.960;8.372;2023-07-02T01:49:41;3.13;;;2.93;;
20287;SDS011;10303;51.960;8.372;2023-07-02T01:52:07;2.80;;;2.60;;
20287;SDS011;10303;51.960;8.372;2023-07-02T01:54:34;3.13;;;2.83;;
20287;SDS011;10303;51.960;8.372;2023-07-02T01:57:02;2.77;;;2.57;;
20287;SDS011;10303;51.960;8.372;2023-07-02T01:59:29;3.67;;;2.60;;
20287;SDS011;10303;51.960;8.372;2023-07-02T02:01:55;2.80;;;2.60;;
20287;SDS011;10303;51.960;8.372;2023-07-02T02:04:22;2.70;;;2.50;;
20287;SDS011;10303;51.960;8.372;2023-07-02T02:06:48;2.90;;;2.70;;
20287;SDS011;10303;51.960;8.372;2023-07-02T02:09:15;2.93;;;2.73;;
20287;SDS011;10303;51.960;8.372;2023-07-02T02:11:43;2.83;;;2.63;;
20287;SDS011;10303;51.960;8.372;2023-07-02T02:14:13;2.97;;;2.70;;
20287;SDS011;10303;51.960;8.372;2023-07-02T02:16:39;2.90;;;2.70;;
20287;SDS011;10303;51.960;8.372;2023-07-02T02:19:05;2.57;;;2.20;;
20287;SDS011;10303;51.960;8.372;2023-07-02T02:21:31;4.27;;;2.87;;
20287;SDS011;10303;51.960;8.372;2023-07-02T02:23:57;3.07;;;2.77;;
20287;SDS011;10303;51.960;8.372;2023-07-02T02:26:25;2.87;;;2.67;;
20287;SDS011;10303;51.960;8.372;2023-07-02T02:28:51;3.07;;;2.77;;
20287;SDS011;10303;51.960;8.372;2023-07-02T02:31:18;3.80;;;3.30;;
20287;SDS011;10303;51.960;8.372;2023-07-02T02:33:45;3.87;;;2.83;;
20287;SDS011;10303;51.960;8.372;2023-07-02T02:36:12;3.13;;;2.83;;
20287;SDS011;10303;51.960;8.372;2023-07-02T02:38:38;3.63;;;3.33;;
20287;SDS011;10303;51.960;8.372;2023-07-02T02:41:04;4.43;;;3.20;;
20287;SDS011;10303;51.960;8.372;2023-07-02T02:43:35;3.80;;;3.43;;
20287;SDS011;10303;51.960;8.372;2023-07-02T02:46:02;4.43;;;3.20;;
20287;SDS011;10303;51.960;8.372;2023-07-02T02:48:28;3.60;;;3.30;;
20287;SDS011;10303;51.960;8.372;2023-07-02T02:50:54;4.07;;;3.70;;
20287;SDS011;10303;51.960;8.372;2023-07-02T02:53:20;3.37;;;3.07;;
20287;SDS011;10303;51.960;8.372;2023-07-02T02:55:46;3.37;;;3.07;;
20287;SDS011;10303;51.960;8.372;2023-07-02T02:58:12;4.10;;;2.90;;
20287;SDS011;10303;51.960;8.372;2023-07-02T03:00:38;4.17;;;3.13;;
20287;SDS011;10303;51.960;8.372;2023-07-02T03:03:07;2.87;;;2.67;;
20287;SDS011;10303;51.960;8.372;2023-07-02T03:05:33;5.53;;;3.87;;
20287;SDS011;10303;51.960;8.372;2023-07-02T03:07:59;5.83;;;4.13;;
20287;SDS011;10303;51.960;8.372;2023-07-02T03:10:25;6.47;;;3.80;;
20287;SDS011;10303;51.960;8.372;2023-07-02T03:12:51;5.93;;;3.20;;
20287;SDS011;10303;51.960;8.372;2023-07-02T03:15:17;3.37;;;3.07;;
20287;SDS011;10303;51.960;8.372;2023-07-02T03:17:43;2.93;;;2.73;;
20287;SDS011;10303;51.960;8.372;2023-07-02T03:20:09;3.30;;;2.97;;
20287;SDS011;10303;51.960;8.372;2023-07-02T03:22:35;3.13;;;2.77;;
20287;SDS011;10303;51.960;8.372;2023-07-02T03:25:01;4.53;;;3.03;;
20287;SDS011;10303;51.960;8.372;2023-07-02T03:27:28;3.57;;;3.27;;
20287;SDS011;10303;51.960;8.372;2023-07-02T03:29:54;4.50;;;3.63;;
20287;SDS011;10303;51.960;8.372;2023-07-02T03:32:20;4.50;;;4.10;;
20287;SDS011;10303;51.960;8.372;2023-07-02T03:34:46;3.37;;;3.03;;
20287;SDS011;10303;51.960;8.372;2023-07-02T03:37:11;6.77;;;4.13;;
20287;SDS011;10303;51.960;8.372;2023-07-02T03:39:37;5.10;;;3.67;;
20287;SDS011;10303;51.960;8.372;2023-07-02T03:42:04;4.53;;;3.63;;
20287;SDS011;10303;51.960;8.372;2023-07-02T03:44:31;7.70;;;4.30;;
20287;SDS011;10303;51.960;8.372;2023-07-02T03:46:57;5.57;;;4.70;;
20287;SDS011;10303;51.960;8.372;2023-07-02T03:49:23;4.63;;;3.73;;
20287;SDS011;10303;51.960;8.372;2023-07-02T03:51:49;3.90;;;3.37;;
20287;SDS011;10303;51.960;8.372;2023-07-02T03:54:15;5.43;;;3.77;;
20287;SDS011;10303;51.960;8.372;2023-07-02T03:56:41;4.37;;;3.93;;
20287;SDS011;10303;51.960;8.372;2023-07-02T03:59:07;9.50;;;5.20;;
20287;SDS011;10303;51.960;8.372;2023-07-02T04:01:33;4.23;;;3.83;;
20287;SDS011;10303;51.960;8.372;2023-07-02T04:03:59;5.77;;;5.07;;
20287;SDS011;10303;51.960;8.372;2023-07-02T04:06:25;7.03;;;4.93;;
20287;SDS011;10303;51.960;8.372;2023-07-02T04:08:51;8.00;;;5.50;;
20287;SDS011;10303;51.960;8.372;2023-07-02T04:11:17;7.63;;;5.07;;
20287;SDS011;10303;51.960;8.372;2023-07-02T04:13:43;8.43;;;4.73;;
20287;SDS011;10303;51.960;8.372;2023-07-02T04:16:09;8.17;;;5.63;;
20287;SDS011;10303;51.960;8.372;2023-07-02T04:18:35;6.23;;;4.90;;
20287;SDS011;10303;51.960;8.372;2023-07-02T04:21:01;5.47;;;4.03;;
20287;SDS011;10303;51.960;8.372;2023-07-02T04:23:27;6.40;;;4.47;;
20287;SDS011;10303;51.960;8.372;2023-07-02T04:25:53;9.30;;;4.63;;
20287;SDS011;10303;51.960;8.372;2023-07-02T04:28:19;5.53;;;3.90;;
20287;SDS011;10303;51.960;8.372;2023-07-02T04:30:45;5.97;;;3.80;;
20287;SDS011;10303;51.960;8.372;2023-07-02T04:33:15;10.87;;;3.87;;
20287;SDS011;10303;51.960;8.372;2023-07-02T04:35:41;6.13;;;4.07;;
20287;SDS011;10303;51.960;8.372;2023-07-02T04:38:07;10.43;;;4.67;;
20287;SDS011;10303;51.960;8.372;2023-07-02T04:40:33;6.07;;;3.80;;
20287;SDS011;10303;51.960;8.372;2023-07-02T04:42:59;8.50;;;4.03;;
20287;SDS011;10303;51.960;8.372;2023-07-02T04:45:25;7.17;;;3.90;;
20287;SDS011;10303;51.960;8.372;2023-07-02T04:47:57;8.10;;;4.70;;
20287;SDS011;10303;51.960;8.372;2023-07-02T04:50:26;5.70;;;3.53;;
20287;SDS011;10303;51.960;8.372;2023-07-02T04:52:51;7.60;;;3.67;;
20287;SDS011;10303;51.960;8.372;2023-07-02T04:55:17;4.60;;;3.30;;
20287;SDS011;10303;51.960;8.372;2023-07-02T04:57:44;9.77;;;4.27;;
20287;SDS011;10303;51.960;8.372;2023-07-02T05:00:10;6.20;;;2.70;;
20287;SDS011;10303;51.960;8.372;2023-07-02T05:02:37;7.13;;;3.63;;
20287;SDS011;10303;51.960;8.372;2023-07-02T05:05:04;8.93;;;4.00;;
20287;SDS011;10303;51.960;8.372;2023-07-02T05:07:30;6.43;;;4.17;;
20287;SDS011;10303;51.960;8.372;2023-07-02T05:09:56;5.87;;;3.67;;
20287;SDS011;10303;51.960;8.372;2023-07-02T05:12:22;7.37;;;4.00;;
20287;SDS011;10303;51.960;8.372;2023-07-02T05:14:49;7.73;;;3.47;;
20287;SDS011;10303;51.960;8.372;2023-07-02T05:17:15;6.43;;;3.67;;
20287;SDS011;10303;51.960;8.372;2023-07-02T05:19:41;12.83;;;4.47;;
20287;SDS011;10303;51.960;8.372;2023-07-02T05:22:10;6.33;;;3.37;;
20287;SDS011;10303;51.960;8.372;2023-07-02T05:24:36;7.70;;;3.70;;
20287;SDS011;10303;51.960;8.372;2023-07-02T05:27:03;5.43;;;3.80;;
20287;SDS011;10303;51.960;8.372;2023-07-02T05:29:29;5.30;;;3.83;;
20287;SDS011;10303;51.960;8.372;2023-07-02T05:31:55;5.73;;;3.97;;
20287;SDS011;10303;51.960;8.372;2023-07-02T05:34:21;6.57;;;3.57;;
20287;SDS011;10303;51.960;8.372;2023-07-02T05:36:47;8.63;;;4.20;;
20287;SDS011;10303;51.960;8.372;2023-07-02T05:39:13;6.73;;;3.90;;
20287;SDS011;10303;51.960;8.372;2023-07-02T05:41:39;8.60;;;3.87;;
20287;SDS011;10303;51.960;8.372;2023-07-02T05:44:05;5.53;;;3.37;;
20287;SDS011;10303;51.960;8.372;2023-07-02T05:46:31;13.77;;;4.70;;
20287;SDS011;10303;51.960;8.372;2023-07-02T05:48:57;9.63;;;4.07;;
20287;SDS011;10303;51.960;8.372;2023-07-02T05:51:24;9.50;;;3.47;;
20287;SDS011;10303;51.960;8.372;2023-07-02T05:53:50;12.07;;;4.57;;
20287;SDS011;10303;51.960;8.372;2023-07-02T05:56:17;5.37;;;4.20;;
20287;SDS011;10303;51.960;8.372;2023-07-02T05:58:44;4.23;;;3.73;;
20287;SDS011;10303;51.960;8.372;2023-07-02T06:01:11;9.37;;;4.23;;
20287;SDS011;10303;51.960;8.372;2023-07-02T06:03:38;8.33;;;4.50;;
20287;SDS011;10303;51.960;8.372;2023-07-02T06:06:04;5.33;;;3.80;;
20287;SDS011;10303;51.960;8.372;2023-07-02T06:08:30;6.40;;;3.90;;
20287;SDS011;10303;51.960;8.372;2023-07-02T06:10:56;8.63;;;4.30;;
20287;SDS011;10303;51.960;8.372;2023-07-02T06:13:22;6.67;;;4.50;;
20287;SDS011;10303;51.960;8.372;2023-07-02T06:15:48;12.40;;;5.33;;
20287;SDS011;10303;51.960;8.372;2023-07-02T06:18:14;9.77;;;3.93;;
20287;SDS011;10303;51.960;8.372;2023-07-02T06:20:40;8.57;;;4.30;;
20287;SDS011;10303;51.960;8.372;2023-07-02T06:23:06;6.30;;;3.10;;
20287;SDS011;10303;51.960;8.372;2023-07-02T06:25:32;5.17;;;3.30;;
20287;SDS011;10303;51.960;8.372;2023-07-02T06:27:58;7.90;;;4.03;;
20287;SDS011;10303;51.960;8.372;2023-07-02T06:30:25;8.07;;;4.27;;
20287;SDS011;10303;51.960;8.372;2023-07-02T06:32:51;11.20;;;4.77;;
20287;SDS011;10303;51.960;8.372;2023-07-02T06:35:19;12.43;;;4.50;;
20287;SDS011;10303;51.960;8.372;2023-07-02T06:37:45;7.73;;;4.07;;
20287;SDS011;10303;51.960;8.372;2023-07-02T06:40:11;7.53;;;3.77;;
20287;SDS011;10303;51.960;8.372;2023-07-02T06:42:37;7.87;;;3.50;;
20287;SDS011;10303;51.960;8.372;2023-07-02T06:45:04;9.33;;;4.40;;
20287;SDS011;10303;51.960;8.372;2023-07-02T06:47:31;19.17;;;4.07;;
20287;SDS011;10303;51.960;8.372;2023-07-02T06:49:57;8.07;;;3.73;;
20287;SDS011;10303;51.960;8.372;2023-07-02T06:52:24;12.47;;;5.10;;
20287;SDS011;10303;51.960;8.372;2023-07-02T06:54:50;9.87;;;4.23;;
20287;SDS011;10303;51.960;8.372;2023-07-02T06:57:16;8.53;;;4.00;;
20287;SDS011;10303;51.960;8.372;2023-07-02T06:59:42;11.03;;;4.47;;
20287;SDS011;10303;51.960;8.372;2023-07-02T07:02:08;12.23;;;4.70;;
20287;SDS011;10303;51.960;8.372;2023-07-02T07:04:34;9.73;;;4.50;;
20287;SDS011;10303;51.960;8.372;2023-07-02T07:07:00;10.93;;;4.63;;
20287;SDS011;10303;51.960;8.372;2023-07-02T07:09:30;14.73;;;5.07;;
20287;SDS011;10303;51.960;8.372;2023-07-02T07:11:56;14.03;;;4.47;;
20287;SDS011;10303;51.960;8.372;2023-07-02T07:14:22;13.90;;;4.60;;
20287;SDS011;10303;51.960;8.372;2023-07-02T07:16:48;12.90;;;4.70;;
20287;SDS011;10303;51.960;8.372;2023-07-02T07:19:16;8.70;;;4.23;;
20287;SDS011;10303;51.960;8.372;2023-07-02T07:21:42;12.47;;;5.70;;
20287;SDS011;10303;51.960;8.372;2023-07-02T07:24:08;8.67;;;3.67;;
20287;SDS011;10303;51.960;8.372;2023-07-02T07:26:34;10.87;;;4.47;;
20287;SDS011;10303;51.960;8.372;2023-07-02T07:29:00;5.93;;;3.50;;
20287;SDS011;10303;51.960;8.372;2023-07-02T07:31:26;6.50;;;3.13;;
20287;SDS011;10303;51.960;8.372;2023-07-02T07:33:53;16.33;;;5.20;;
20287;SDS011;10303;51.960;8.372;2023-07-02T07:36:19;14.07;;;4.83;;
20287;SDS011;10303;51.960;8.372;2023-07-02T07:38:45;11.00;;;5.23;;
20287;SDS011;10303;51.960;8.372;2023-07-02T07:41:11;10.17;;;4.20;;
20287;SDS011;10303;51.960;8.372;2023-07-02T07:43:37;11.53;;;4.80;;
20287;SDS011;10303;51.960;8.372;2023-07-02T07:46:03;9.53;;;4.37;;
20287;SDS011;10303;51.960;8.372;2023-07-02T07:48:29;9.87;;;4.43;;
20287;SDS011;10303;51.960;8.372;2023-07-02T07:50:55;12.87;;;3.77;;
20287;SDS011;10303;51.960;8.372;2023-07-02T07:53:21;11.13;;;5.70;;
20287;SDS011;10303;51.960;8.372;2023-07-02T07:55:47;10.97;;;4.00;;
20287;SDS011;10303;51.960;8.372;2023-07-02T07:58:13;6.63;;;4.77;;
20287;SDS011;10303;51.960;8.372;2023-07-02T08:00:39;8.90;;;4.43;;
20287;SDS011;10303;51.960;8.372;2023-07-02T08:03:05;16.50;;;5.67;;
20287;SDS011;10303;51.960;8.372;2023-07-02T08:05:31;12.73;;;4.50;;
20287;SDS011;10303;51.960;8.372;2023-07-02T08:07:57;10.67;;;5.07;;
20287;SDS011;10303;51.960;8.372;2023-07-02T08:10:24;8.63;;;4.27;;
20287;SDS011;10303;51.960;8.372;2023-07-02T08:12:50;11.50;;;5.00;;
20287;SDS011;10303;51.960;8.372;2023-07-02T08:15:17;16.98;;;5.57;;
20287;SDS011;10303;51.960;8.372;2023-07-02T08:17:44;11.93;;;4.80;;
20287;SDS011;10303;51.960;8.372;2023-07-02T08:20:10;10.00;;;5.00;;
20287;SDS011;10303;51.960;8.372;2023-07-02T08:22:37;9.82;;;5.07;;
20287;SDS011;10303;51.960;8.372;2023-07-02T08:25:05;11.48;;;5.68;;
20287;SDS011;10303;51.960;8.372;2023-07-02T08:27:31;11.48;;;5.15;;
20287;SDS011;10303;51.960;8.372;2023-07-02T08:29:57;13.10;;;5.15;;
20287;SDS011;10303;51.960;8.372;2023-07-02T08:32:23;10.10;;;3.75;;
20287;SDS011;10303;51.960;8.372;2023-07-02T08:34:49;23.83;;;5.13;;
20287;SDS011;10303;51.960;8.372;2023-07-02T08:37:18;13.45;;;5.05;;
20287;SDS011;10303;51.960;8.372;2023-07-02T08:39:45;9.87;;;5.20;;
20287;SDS011;10303;51.960;8.372;2023-07-02T08:42:11;9.17;;;4.30;;
20287;SDS011;10303;51.960;8.372;2023-07-02T08:44:37;9.98;;;5.10;;
20287;SDS011;10303;51.960;8.372;2023-07-02T08:47:04;10.55;;;4.75;;
20287;SDS011;10303;51.960;8.372;2023-07-02T08:49:31;12.05;;;5.13;;
20287;SDS011;10303;51.960;8.372;2023-07-02T08:51:57;8.93;;;5.05;;
20287;SDS011;10303;51.960;8.372;2023-07-02T08:54:23;10.15;;;3.90;;
20287;SDS011;10303;51.960;8.372;2023-07-02T08:56:49;10.05;;;4.72;;
20287;SDS011;10303;51.960;8.372;2023-07-02T08:59:15;13.15;;;4.75;;
20287;SDS011;10303;51.960;8.372;2023-07-02T09:01:45;14.82;;;4.43;;
20287;SDS011;10303;51.960;8.372;2023-07-02T09:04:20;10.45;;;4.40;;
20287;SDS011;10303;51.960;8.372;2023-07-02T09:09:43;10.20;;;4.60;;
20287;SDS011;10303;51.960;8.372;2023-07-02T09:12:28;9.80;;;4.25;;
20287;SDS011;10303;51.960;8.372;2023-07-02T09:15:01;10.80;;;4.05;;
20287;SDS011;10303;51.960;8.372;2023-07-02T09:17:37;7.45;;;3.60;;
20287;SDS011;10303;51.960;8.372;2023-07-02T09:20:04;8.30;;;3.65;;
20287;SDS011;10303;51.960;8.372;2023-07-02T09:22:35;9.57;;;4.32;;
20287;SDS011;10303;51.960;8.372;2023-07-02T09:25:02;9.50;;;4.82;;
20287;SDS011;10303;51.960;8.372;2023-07-02T09:27:33;7.95;;;4.32;;
20287;SDS011;10303;51.960;8.372;2023-07-02T09:30:06;9.32;;;3.97;;
20287;SDS011;10303;51.960;8.372;2023-07-02T09:32:44;6.35;;;3.72;;
20287;SDS011;10303;51.960;8.372;2023-07-02T09:35:11;6.28;;;3.78;;
20287;SDS011;10303;51.960;8.372;2023-07-02T09:37:42;5.40;;;3.78;;
20287;SDS011;10303;51.960;8.372;2023-07-02T09:40:10;8.65;;;4.03;;
20287;SDS011;10303;51.960;8.372;2023-07-02T09:42:37;7.03;;;4.25;;
20287;SDS011;10303;51.960;8.372;2023-07-02T09:45:07;8.70;;;3.55;;
20287;SDS011;10303;51.960;8.372;2023-07-02T09:47:37;7.30;;;3.90;;
20287;SDS011;10303;51.960;8.372;2023-07-02T09:50:13;11.15;;;3.65;;
20287;SDS011;10303;51.960;8.372;2023-07-02T09:52:44;9.45;;;4.40;;
20287;SDS011;10303;51.960;8.372;2023-07-02T09:55:12;7.72;;;3.97;;
20287;SDS011;10303;51.960;8.372;2023-07-02T09:57:39;7.25;;;4.22;;
20287;SDS011;10303;51.960;8.372;2023-07-02T10:00:09;6.80;;;4.15;;
20287;SDS011;10303;51.960;8.372;2023-07-02T10:02:37;6.70;;;4.22;;
20287;SDS011;10303;51.960;8.372;2023-07-02T10:05:04;6.88;;;3.50;;
20287;SDS011;10303;51.960;8.372;2023-07-02T10:07:31;7.47;;;4.35;;
20287;SDS011;10303;51.960;8.372;2023-07-02T10:09:58;13.30;;;4.75;;
20287;SDS011;10303;51.960;8.372;2023-07-02T10:12:29;6.15;;;3.90;;
20287;SDS011;10303;51.960;8.372;2023-07-02T10:14:57;6.40;;;3.28;;
20287;SDS011;10303;51.960;8.372;2023-07-02T10:17:25;12.02;;;4.20;;
20287;SDS011;10303;51.960;8.372;2023-07-02T10:20:06;9.13;;;4.40;;
20287;SDS011;10303;51.960;8.372;2023-07-02T10:22:46;9.02;;;3.65;;
20287;SDS011;10303;51.960;8.372;2023-07-02T10:25:25;7.22;;;3.67;;
20287;SDS011;10303;51.960;8.372;2023-07-02T10:27:57;7.97;;;3.67;;
20287;SDS011;10303;51.960;8.372;2023-07-02T10:30:36;5.88;;;3.80;;
20287;SDS011;10303;51.960;8.372;2023-07-02T10:33:21;8.55;;;3.58;;
20287;SDS011;10303;51.960;8.372;2023-07-02T10:35:49;12.15;;;3.13;;
20287;SDS011;10303;51.960;8.372;2023-07-02T10:40:45;12.40;;;4.35;;
20287;SDS011;10303;51.960;8.372;2023-07-02T10:43:12;7.15;;;3.22;;
20287;SDS011;10303;51.960;8.372;2023-07-02T10:45:38;8.07;;;3.70;;
20287;SDS011;10303;51.960;8.372;2023-07-02T10:48:10;8.45;;;4.13;;
20287;SDS011;10303;51.960;8.372;2023-07-02T10:50:36;7.50;;;3.80;;
20287;SDS011;10303;51.960;8.372;2023-07-02T10:53:02;15.40;;;4.07;;
20287;SDS011;10303;51.960;8.372;2023-07-02T10:55:43;6.68;;;3.50;;
20287;SDS011;10303;51.960;8.372;2023-07-02T10:58:11;16.90;;;3.83;;
20287;SDS011;10303;51.960;8.372;2023-07-02T11:00:43;4.07;;;3.38;;
20287;SDS011;10303;51.960;8.372;2023-07-02T11:03:20;6.22;;;3.85;;
20287;SDS011;10303;51.960;8.372;2023-07-02T11:05:49;17.50;;;5.10;;
20287;SDS011;10303;51.960;8.372;2023-07-02T11:08:17;13.90;;;5.20;;
20287;SDS011;10303;51.960;8.372;2023-07-02T11:10:44;7.22;;;4.68;;
20287;SDS011;10303;51.960;8.372;2023-07-02T11:13:17;8.88;;;4.43;;
20287;SDS011;10303;51.960;8.372;2023-07-02T11:15:45;9.90;;;5.45;;
20287;SDS011;10303;51.960;8.372;2023-07-02T11:18:12;6.63;;;4.10;;
20287;SDS011;10303;51.960;8.372;2023-07-02T11:20:42;8.85;;;4.10;;
20287;SDS011;10303;51.960;8.372;2023-07-02T11:23:43;7.80;;;3.97;;
20287;SDS011;10303;51.960;8.372;2023-07-02T11:26:02;5.47;;;4.00;;
20287;SDS011;10303;51.960;8.372;2023-07-02T11:28:29;8.23;;;3.95;;
20287;SDS011;10303;51.960;8.372;2023-07-02T11:30:57;6.18;;;3.85;;
20287;SDS011;10303;51.960;8.372;2023-07-02T11:36:03;7.53;;;3.40;;
20287;SDS011;10303;51.960;8.372;2023-07-02T11:38:33;10.18;;;4.55;;
20287;SDS011;10303;51.960;8.372;2023-07-02T11:41:04;11.60;;;4.50;;
20287;SDS011;10303;51.960;8.372;2023-07-02T11:43:31;6.55;;;4.15;;
20287;SDS011;10303;51.960;8.372;2023-07-02T11:45:59;7.35;;;4.35;;
20287;SDS011;10303;51.960;8.372;2023-07-02T11:48:25;7.30;;;4.43;;
20287;SDS011;10303;51.960;8.372;2023-07-02T11:50:52;7.90;;;4.65;;
20287;SDS011;10303;51.960;8.372;2023-07-02T11:53:18;13.60;;;5.13;;
20287;SDS011;10303;51.960;8.372;2023-07-02T11:55:44;11.57;;;4.63;;
20287;SDS011;10303;51.960;8.372;2023-07-02T11:58:11;10.00;;;4.00;;
20287;SDS011;10303;51.960;8.372;2023-07-02T12:00:37;8.13;;;3.95;;
20287;SDS011;10303;51.960;8.372;2023-07-02T12:03:04;12.80;;;5.90;;
20287;SDS011;10303;51.960;8.372;2023-07-02T12:05:31;15.45;;;5.65;;
20287;SDS011;10303;51.960;8.372;2023-07-02T12:07:58;8.05;;;4.30;;
20287;SDS011;10303;51.960;8.372;2023-07-02T12:10:24;9.48;;;4.28;;
20287;SDS011;10303;51.960;8.372;2023-07-02T12:12:51;9.68;;;3.95;;
20287;SDS011;10303;51.960;8.372;2023-07-02T12:15:17;9.23;;;4.18;;
20287;SDS011;10303;51.960;8.372;2023-07-02T12:17:43;12.02;;;4.80;;
20287;SDS011;10303;51.960;8.372;2023-07-02T12:20:10;9.25;;;4.47;;
20287;SDS011;10303;51.960;8.372;2023-07-02T12:22:37;7.97;;;4.20;;
20287;SDS011;10303;51.960;8.372;2023-07-02T12:25:03;7.93;;;4.07;;
20287;SDS011;10303;51.960;8.372;2023-07-02T12:27:30;7.43;;;3.05;;
20287;SDS011;10303;51.960;8.372;2023-07-02T12:29:56;7.85;;;3.85;;
20287;SDS011;10303;51.960;8.372;2023-07-02T12:32:22;9.70;;;4.35;;
20287;SDS011;10303;51.960;8.372;2023-07-02T12:34:49;4.63;;;3.30;;
20287;SDS011;10303;51.960;8.372;2023-07-02T12:37:15;3.67;;;3.13;;
20287;SDS011;10303;51.960;8.372;2023-07-02T12:39:43;6.30;;;3.35;;
20287;SDS011;10303;51.960;8.372;2023-07-02T12:42:09;6.75;;;3.28;;
20287;SDS011;10303;51.960;8.372;2023-07-02T12:44:35;7.50;;;3.60;;
20287;SDS011;10303;51.960;8.372;2023-07-02T12:47:01;8.23;;;4.30;;
20287;SDS011;10303;51.960;8.372;2023-07-02T12:49:27;8.20;;;3.78;;
20287;SDS011;10303;51.960;8.372;2023-07-02T12:51:53;6.18;;;3.20;;
20287;SDS011;10303;51.960;8.372;2023-07-02T12:54:19;7.13;;;3.92;;
20287;SDS011;10303;51.960;8.372;2023-07-02T12:56:45;7.13;;;3.75;;
20287;SDS011;10303;51.960;8.372;2023-07-02T12:59:11;6.38;;;3.72;;
20287;SDS011;10303;51.960;8.372;2023-07-02T13:01:37;6.60;;;3.75;;
20287;SDS011;10303;51.960;8.372;2023-07-02T13:04:03;5.82;;;3.25;;
20287;SDS011;10303;51.960;8.372;2023-07-02T13:06:29;5.90;;;3.00;;
20287;SDS011;10303;51.960;8.372;2023-07-02T13:08:59;3.30;;;2.88;;
20287;SDS011;10303;51.960;8.372;2023-07-02T13:11:25;7.13;;;3.85;;
20287;SDS011;10303;51.960;8.372;2023-07-02T13:13:51;8.40;;;3.08;;
20287;SDS011;10303;51.960;8.372;2023-07-02T13:16:18;7.95;;;3.42;;
20287;SDS011;10303;51.960;8.372;2023-07-02T13:18:44;10.90;;;3.72;;
20287;SDS011;10303;51.960;8.372;2023-07-02T13:21:10;7.50;;;3.42;;
20287;SDS011;10303;51.960;8.372;2023-07-02T13:23:36;4.47;;;3.00;;
20287;SDS011;10303;51.960;8.372;2023-07-02T13:26:03;5.47;;;3.05;;
20287;SDS011;10303;51.960;8.372;2023-07-02T13:28:29;6.75;;;3.58;;
20287;SDS011;10303;51.960;8.372;2023-07-02T13:30:55;8.65;;;3.35;;
20287;SDS011;10303;51.960;8.372;2023-07-02T13:33:22;8.95;;;3.90;;
20287;SDS011;10303;51.960;8.372;2023-07-02T13:35:48;9.52;;;3.83;;
20287;SDS011;10303;51.960;8.372;2023-07-02T13:38:14;7.15;;;3.53;;
20287;SDS011;10303;51.960;8.372;2023-07-02T13:40:40;4.60;;;2.70;;
20287;SDS011;10303;51.960;8.372;2023-07-02T13:43:06;6.03;;;2.97;;
20287;SDS011;10303;51.960;8.372;2023-07-02T13:45:32;5.22;;;2.90;;
20287;SDS011;10303;51.960;8.372;2023-07-02T13:47:58;7.68;;;3.47;;
20287;SDS011;10303;51.960;8.372;2023-07-02T13:50:24;9.23;;;3.60;;
20287;SDS011;10303;51.960;8.372;2023-07-02T13:52:50;6.47;;;3.63;;
20287;SDS011;10303;51.960;8.372;2023-07-02T13:55:16;6.00;;;3.20;;
20287;SDS011;10303;51.960;8.372;2023-07-02T13:57:42;7.30;;;3.58;;
20287;SDS011;10303;51.960;8.372;2023-07-02T14:00:08;7.43;;;3.10;;
20287;SDS011;10303;51.960;8.372;2023-07-02T14:02:35;7.20;;;3.03;;
20287;SDS011;10303;51.960;8.372;2023-07-02T14:05:01;6.40;;;3.38;;
20287;SDS011;10303;51.960;8.372;2023-07-02T14:07:27;7.07;;;3.75;;
20287;SDS011;10303;51.960;8.372;2023-07-02T14:09:53;7.97;;;3.60;;
20287;SDS011;10303;51.960;8.372;2023-07-02T14:12:20;5.15;;;3.22;;
20287;SDS011;10303;51.960;8.372;2023-07-02T14:14:46;6.78;;;3.35;;
20287;SDS011;10303;51.960;8.372;2023-07-02T14:17:12;6.65;;;2.97;;
20287;SDS011;10303;51.960;8.372;2023-07-02T14:19:38;8.55;;;3.83;;
20287;SDS011;10303;51.960;8.372;2023-07-02T14:22:04;11.27;;;3.72;;
20287;SDS011;10303;51.960;8.372;2023-07-02T14:24:30;4.45;;;2.92;;
20287;SDS011;10303;51.960;8.372;2023-07-02T14:26:59;7.22;;;3.95;;
20287;SDS011;10303;51.960;8.372;2023-07-02T14:29:25;4.70;;;3.35;;
20287;SDS011;10303;51.960;8.372;2023-07-02T14:31:51;8.30;;;3.95;;
20287;SDS011;10303;51.960;8.372;2023-07-02T14:34:18;8.52;;;3.38;;
20287;SDS011;10303;51.960;8.372;2023-07-02T14:36:44;6.30;;;3.65;;
20287;SDS011;10303;51.960;8.372;2023-07-02T14:39:10;6.82;;;3.30;;
20287;SDS011;10303;51.960;8.372;2023-07-02T14:41:37;7.05;;;3.70;;
20287;SDS011;10303;51.960;8.372;2023-07-02T14:44:03;8.23;;;3.90;;
20287;SDS011;10303;51.960;8.372;2023-07-02T14:46:30;7.43;;;3.88;;
20287;SDS011;10303;51.960;8.372;2023-07-02T14:48:57;8.55;;;4.28;;
20287;SDS011;10303;51.960;8.372;2023-07-02T14:51:24;6.22;;;3.00;;
20287;SDS011;10303;51.960;8.372;2023-07-02T14:53:50;5.75;;;3.63;;
20287;SDS011;10303;51.960;8.372;2023-07-02T14:56:17;7.68;;;3.67;;
20287;SDS011;10303;51.960;8.372;2023-07-02T14:58:43;5.97;;;3.45;;